Time;durP1;ratioP1;P1;durP2;ratioP2;P2;SDS_P1;SDS_P2;PMS_P1;PMS_P2;Temp;Humidity;BMP_temperature;BMP_pressure;BME280_temperature;BME280_humidity;BME280_pressure;Samples;Min_cycle;Max_cycle;Signal;HPM_P1;HPM_P2
2023/04/02 00:00:34;;;;;;;6.05;1.88;;;;;;;11.95;62.19;99394.75;6190165;23;20009;-86
2023/04/02 00:03:07;;;;;;;6.93;2.30;;;;;;;12.11;62.02;99399.69;6191031;23;20128;-85
2023/04/02 00:05:35;;;;;;;4.07;2.00;;;;;;;12.11;61.97;99400.53;6189429;23;20343;-85
2023/04/02 00:08:09;;;;;;;5.30;2.47;;;;;;;12.17;61.67;99398.91;6188062;23;20005;-87
2023/04/02 00:10:36;;;;;;;4.40;2.13;;;;;;;12.18;61.63;99400.53;6187589;23;20009;-84
2023/04/02 00:13:24;;;;;;;8.30;2.03;;;;;;;12.15;62.29;99395.63;6188093;23;20443;-85
2023/04/02 00:15:56;;;;;;;5.57;2.35;;;;;;;12.34;61.26;99410.81;6187305;23;20012;-89
2023/04/02 00:18:23;;;;;;;4.23;2.13;;;;;;;12.30;61.80;99407.72;6188272;23;20005;-84
2023/04/02 00:21:29;;;;;;;7.05;2.53;;;;;;;12.44;61.46;99392.63;6187780;23;20368;-84
2023/04/02 00:23:57;;;;;;;6.60;2.22;;;;;;;12.39;61.63;99403.84;6186406;23;20432;-84
2023/04/02 00:26:37;;;;;;;6.38;2.33;;;;;;;12.36;62.74;99406.13;6185561;23;20063;-84
2023/04/02 00:29:04;;;;;;;10.48;2.22;;;;;;;12.55;61.42;99408.00;6187379;23;20015;-84
2023/04/02 00:31:32;;;;;;;3.60;1.92;;;;;;;12.69;60.68;99409.66;6192750;23;20016;-86
2023/04/02 00:34:00;;;;;;;7.53;2.15;;;;;;;12.85;59.30;99408.44;6186958;23;20005;-87
2023/04/02 00:36:29;;;;;;;3.78;1.80;;;;;;;12.70;59.98;99408.63;6186728;23;20012;-86
2023/04/02 00:38:58;;;;;;;6.13;2.08;;;;;;;12.89;58.83;99409.69;6186675;23;20013;-84
2023/04/02 00:41:28;;;;;;;4.25;1.75;;;;;;;12.66;58.98;99414.56;6136060;23;20017;-85
2023/04/02 00:43:56;;;;;;;6.78;2.47;;;;;;;12.53;59.19;99404.72;6186803;23;20017;-86
2023/04/02 00:46:29;;;;;;;4.03;1.90;;;;;;;12.66;58.17;99415.38;6160071;23;20444;-84
2023/04/02 00:49:28;;;;;;;12.68;2.20;;;;;;;12.31;59.75;99401.41;6186215;23;20009;-85
2023/04/02 00:51:59;;;;;;;4.38;1.95;;;;;;;11.97;61.21;99401.47;6186138;23;20013;-86
2023/04/02 00:54:30;;;;;;;4.30;2.08;;;;;;;11.73;62.46;99408.09;6186276;23;20017;-85
2023/04/02 00:56:57;;;;;;;4.22;1.85;;;;;;;11.55;64.11;99410.44;6160970;23;20468;-84
2023/04/02 00:59:35;;;;;;;4.05;1.60;;;;;;;11.34;66.32;99407.84;6186776;23;20440;-84
2023/04/02 01:02:13;;;;;;;3.75;1.67;;;;;;;11.38;66.88;99403.81;6187165;23;20032;-85
2023/04/02 01:04:40;;;;;;;4.28;1.73;;;;;;;11.39;67.51;99405.44;6187095;23;20024;-86
2023/04/02 01:07:09;;;;;;;4.70;1.92;;;;;;;11.17;68.60;99409.97;6187508;23;20041;-86
2023/04/02 01:10:03;;;;;;;4.88;1.55;;;;;;;11.15;68.34;99408.53;6161713;23;20035;-84
2023/04/02 01:13:08;;;;;;;2.97;1.48;;;;;;;11.10;68.59;99411.75;6188254;23;20016;-85
2023/04/02 01:15:45;;;;;;;6.03;2.00;;;;;;;11.10;69.69;99406.44;6161467;23;20099;-85
2023/04/02 01:18:17;;;;;;;5.88;1.83;;;;;;;11.11;69.10;99407.28;6186793;23;20274;-84
2023/04/02 01:20:48;;;;;;;5.72;2.00;;;;;;;11.24;68.24;99407.38;6188091;23;20072;-86
2023/04/02 01:23:15;;;;;;;5.82;1.63;;;;;;;11.52;66.78;99410.00;6187466;23;20017;-83
2023/04/02 01:25:58;;;;;;;4.18;1.98;;;;;;;11.68;64.98;99402.56;6186823;23;20083;-84
2023/04/02 01:28:34;;;;;;;4.45;1.85;;;;;;;12.01;63.21;99407.22;6187558;23;20009;-85
2023/04/02 01:31:01;;;;;;;5.45;1.70;;;;;;;12.15;62.19;99412.41;6187166;23;20016;-85
2023/04/02 01:33:34;;;;;;;4.63;1.60;;;;;;;12.37;61.22;99413.06;6160695;23;20104;-84
2023/04/02 01:36:32;;;;;;;5.88;1.50;;;;;;;12.49;60.67;99422.09;6186939;23;20013;-84
2023/04/02 01:39:18;;;;;;;4.60;1.75;;;;;;;12.18;61.09;99421.78;6210727;23;20481;-86
2023/04/02 01:41:58;;;;;;;4.50;1.33;;;;;;;11.98;62.24;99426.22;6186686;23;20080;-85
2023/04/02 01:44:47;;;;;;;8.70;2.00;;;;;;;12.20;61.93;99436.50;6167381;23;20013;-85
2023/04/02 01:47:16;;;;;;;4.50;1.55;;;;;;;12.24;62.05;99443.06;6190196;23;20332;-86
2023/04/02 01:49:43;;;;;;;8.43;1.83;;;;;;;12.12;62.97;99435.88;6188600;23;20037;-86
2023/04/02 01:52:16;;;;;;;4.63;1.75;;;;;;;11.99;63.10;99444.63;6161748;23;20013;-84
2023/04/02 01:54:42;;;;;;;5.35;1.65;;;;;;;11.84;63.60;99450.03;6187770;23;20013;-86
2023/04/02 01:57:08;;;;;;;5.55;1.70;;;;;;;11.70;64.55;99450.16;6165685;23;20014;-84
2023/04/02 01:59:34;;;;;;;8.70;1.60;;;;;;;11.71;64.33;99451.78;6173161;23;20041;-84
2023/04/02 02:02:05;;;;;;;3.60;1.50;;;;;;;11.63;64.46;99450.09;6176245;23;20013;-84
2023/04/02 02:04:34;;;;;;;2.78;1.60;;;;;;;11.51;64.83;99451.63;6161566;23;20017;-84
2023/04/02 02:07:01;;;;;;;4.60;1.85;;;;;;;11.40;65.47;99455.66;6137621;23;20013;-87
2023/04/02 02:09:31;;;;;;;3.50;1.50;;;;;;;11.32;66.03;99457.63;6162865;23;20009;-85
2023/04/02 02:11:58;;;;;;;4.05;1.70;;;;;;;11.25;66.79;99462.88;6191202;23;20009;-84
2023/04/02 02:14:26;;;;;;;3.30;1.52;;;;;;;11.22;67.25;99462.44;6171865;23;20024;-85
2023/04/02 02:17:00;;;;;;;3.80;1.63;;;;;;;11.36;66.50;99464.19;6165596;23;20013;-84
2023/04/02 02:28:35;;;;;;;6.65;2.20;;;;;;;10.69;70.06;99480.53;6185781;23;20021;-78
2023/04/02 02:32:07;;;;;;;7.38;2.28;;;;;;;10.63;71.26;99477.81;6210091;23;20340;-78
2023/04/02 02:38:07;;;;;;;2.15;1.15;;;;;;;10.79;70.33;99477.56;6197388;23;20032;-80
2023/04/02 02:45:27;;;;;;;7.88;1.67;;;;;;;11.52;65.85;99479.00;6201923;23;20031;-82
2023/04/02 02:48:33;;;;;;;12.15;1.60;;;;;;;11.89;63.23;99489.28;6211176;23;20028;-79
2023/04/02 02:54:21;;;;;;;3.33;1.40;;;;;;;11.57;63.17;99488.00;6196790;23;20028;-79
2023/04/02 03:18:48;;;;;;;6.80;2.50;;;;;;;10.85;70.80;99533.28;6197691;23;20016;-79
2023/04/02 03:21:53;;;;;;;5.03;2.13;;;;;;;10.72;72.75;99537.63;6211694;23;20005;-79
2023/04/02 03:25:15;;;;;;;12.88;3.22;;;;;;;10.90;73.57;99544.13;6191696;23;20008;-79
2023/04/02 03:41:13;;;;;;;14.02;4.85;;;;;;;11.19;84.01;99571.56;6101334;23;20592;-77
2023/04/02 03:47:54;;;;;;;14.43;6.65;;;;;;;11.29;89.57;99574.72;6220573;23;20004;-78
2023/04/02 03:51:02;;;;;;;19.17;10.20;;;;;;;11.35;99.52;99574.78;6237467;23;20016;-79
2023/04/02 04:10:25;;;;;;;24.05;10.57;;;;;;;10.93;100.00;99579.25;6208899;22;21322;-82
2023/04/02 04:19:45;;;;;;;22.50;11.90;;;;;;;10.72;100.00;99606.53;6226501;22;20035;-83
2023/04/02 04:22:40;;;;;;;21.75;10.90;;;;;;;10.79;100.00;99604.78;6209232;23;20023;-80
2023/04/02 04:28:57;;;;;;;25.33;11.82;;;;;;;10.65;100.00;99617.03;6207442;23;20044;-81
2023/04/02 04:31:45;;;;;;;20.92;10.20;;;;;;;10.49;100.00;99619.06;6208778;23;20028;-81
2023/04/02 04:34:45;;;;;;;16.60;8.93;;;;;;;10.52;100.00;99619.53;6221724;23;20051;-81
2023/04/02 04:37:38;;;;;;;24.90;7.95;;;;;;;10.24;100.00;99626.47;6175947;23;20021;-80
2023/04/02 04:40:30;;;;;;;13.18;8.02;;;;;;;10.30;100.00;99623.91;6222996;23;20008;-81
2023/04/02 04:43:03;;;;;;;14.95;7.85;;;;;;;10.21;100.00;99632.09;6197008;23;20028;-81
2023/04/02 04:46:04;;;;;;;19.38;6.78;;;;;;;10.10;100.00;99627.25;6229966;23;20013;-82
2023/04/02 04:48:40;;;;;;;11.60;6.88;;;;;;;10.20;100.00;99631.31;6201448;23;20027;-81
2023/04/02 04:54:36;;;;;;;16.77;7.60;;;;;;;10.12;100.00;99638.47;6197928;23;20091;-80
2023/04/02 04:57:42;;;;;;;17.50;7.13;;;;;;;10.20;100.00;99638.44;6212935;23;20024;-80
2023/04/02 05:00:52;;;;;;;18.55;7.30;;;;;;;10.46;100.00;99646.75;6172936;23;20024;-79
2023/04/02 05:03:40;;;;;;;10.50;6.03;;;;;;;10.47;100.00;99642.28;6196189;23;20017;-79
2023/04/02 05:06:36;;;;;;;11.73;6.57;;;;;;;10.61;100.00;99634.31;6154628;23;20008;-80
2023/04/02 05:09:41;;;;;;;8.70;5.60;;;;;;;10.71;100.00;99636.66;6194916;23;20021;-80
2023/04/02 05:16:32;;;;;;;19.42;5.80;;;;;;;10.81;96.91;99651.28;6201381;23;20013;-79
2023/04/02 05:24:14;;;;;;;14.60;5.38;;;;;;;10.92;93.82;99667.72;6064372;23;20088;-79
2023/04/02 05:42:03;;;;;;;10.18;5.50;;;;;;;10.85;95.46;99691.50;6173919;23;20425;-80
2023/04/02 05:52:14;;;;;;;11.23;4.35;;;;;;;10.69;91.70;99721.66;6181338;23;20056;-79
2023/04/02 06:04:12;;;;;;;15.43;4.55;;;;;;;10.86;87.25;99738.22;6161838;23;20001;-79
2023/04/02 06:56:01;;;;;;;33.97;15.00;;;;;;;10.99;100.00;99793.25;6196189;22;20063;-80
2023/04/02 07:04:37;;;;;;;22.08;10.23;;;;;;;11.11;100.00;99813.00;6167253;23;20096;-82
2023/04/02 07:07:30;;;;;;;23.15;9.27;;;;;;;10.90;100.00;99817.19;6157982;23;20036;-81
2023/04/02 07:40:51;;;;;;;26.42;10.15;;;;;;;10.95;100.00;99848.47;6196634;23;20023;-84
2023/04/02 07:43:17;;;;;;;19.27;9.30;;;;;;;11.07;100.00;99852.31;6199125;23;20009;-80
2023/04/02 07:54:54;;;;;;;17.15;8.10;;;;;;;10.69;100.00;99878.03;6224594;22;20031;-83
2023/04/02 08:04:00;;;;;;;19.73;8.27;;;;;;;10.99;100.00;99881.56;6191480;22;20824;-80
2023/04/02 08:20:20;;;;;;;35.77;14.90;;;;;;;11.03;100.00;99882.88;6207367;23;20272;-80
2023/04/02 08:42:23;;;;;;;59.25;32.42;;;;;;;11.79;100.00;99922.38;6177099;23;20272;-89
2023/04/02 08:45:40;;;;;;;64.53;33.95;;;;;;;11.76;100.00;99912.13;6111297;23;20057;-85
2023/04/02 08:48:45;;;;;;;65.78;34.63;;;;;;;11.64;100.00;99908.22;6085112;23;20003;-85
2023/04/02 09:13:16;;;;;;;55.97;29.93;;;;;;;11.87;100.00;99908.13;6199859;23;20065;-82
2023/04/02 09:15:43;;;;;;;53.35;29.48;;;;;;;11.96;100.00;99911.53;6165995;23;20264;-85
2023/04/02 09:18:19;;;;;;;51.97;28.33;;;;;;;12.10;100.00;99940.72;6172405;23;20009;-83
2023/04/02 09:20:48;;;;;;;48.72;26.25;;;;;;;12.41;100.00;99954.56;6197950;23;20012;-85
2023/04/02 09:23:40;;;;;;;47.25;24.95;;;;;;;12.38;100.00;99973.56;6147923;23;20029;-88
2023/04/02 09:26:23;;;;;;;52.65;26.38;;;;;;;12.48;100.00;99970.59;6083961;23;20015;-82
2023/04/02 09:29:11;;;;;;;46.10;24.23;;;;;;;12.65;100.00;99976.50;6108929;23;20057;-87
2023/04/02 09:32:26;;;;;;;43.95;25.27;;;;;;;12.77;100.00;99981.13;6107050;23;20018;-84
2023/04/02 09:35:35;;;;;;;49.17;27.35;;;;;;;12.77;100.00;99986.44;6080100;23;20110;-92
2023/04/02 09:38:11;;;;;;;58.92;27.92;;;;;;;12.91;100.00;99990.88;6011111;23;20019;-91
2023/04/02 09:40:50;;;;;;;52.60;26.25;;;;;;;12.92;100.00;99997.88;6029180;23;20018;-88
2023/04/02 09:43:36;;;;;;;49.97;26.13;;;;;;;12.80;100.00;100004.69;5998755;23;20020;-92
2023/04/02 09:46:25;;;;;;;52.97;29.92;;;;;;;12.52;100.00;99993.13;6009812;23;20019;-91
2023/04/02 09:48:59;;;;;;;55.83;28.73;;;;;;;12.65;100.00;100003.91;6028034;23;20019;-92
2023/04/02 09:51:38;;;;;;;50.30;28.42;;;;;;;12.71;100.00;100003.16;6033188;23;20033;-90
2023/04/02 09:54:15;;;;;;;56.45;29.33;;;;;;;12.72;100.00;100009.31;6026661;23;20075;-91
2023/04/02 09:57:01;;;;;;;55.78;32.30;;;;;;;12.66;100.00;100016.19;6038233;23;20020;-91
2023/04/02 09:59:30;;;;;;;64.55;33.60;;;;;;;12.91;100.00;100020.16;6033549;23;20090;-89
2023/04/02 10:02:22;;;;;;;52.90;28.67;;;;;;;13.15;100.00;100031.47;6024036;23;20438;-89
2023/04/02 10:04:53;;;;;;;50.28;26.83;;;;;;;13.19;100.00;100022.88;6012360;23;20027;-90
2023/04/02 10:07:40;;;;;;;53.08;28.10;;;;;;;13.10;100.00;100023.22;6049116;23;20027;-88
2023/04/02 10:12:43;;;;;;;45.75;27.73;;;;;;;13.23;100.00;100023.31;6221026;23;20013;-85
2023/04/02 10:15:17;;;;;;;54.03;29.27;;;;;;;13.25;100.00;100023.97;6231995;23;20018;-87
2023/04/02 10:17:45;;;;;;;51.55;30.27;;;;;;;13.13;100.00;100012.19;6183779;23;20100;-88
2023/04/02 10:20:21;;;;;;;54.38;30.77;;;;;;;13.17;100.00;100022.25;6242977;23;20045;-88
2023/04/02 10:22:47;;;;;;;50.47;30.75;;;;;;;13.13;100.00;100022.81;6207051;23;20016;-86
2023/04/02 10:25:20;;;;;;;52.53;29.52;;;;;;;13.56;100.00;100011.09;6228498;23;20009;-88
2023/04/02 10:27:56;;;;;;;51.80;29.40;;;;;;;13.67;100.00;100010.59;6202746;23;20049;-86
2023/04/02 10:31:03;;;;;;;55.10;29.48;;;;;;;13.54;100.00;100007.84;6225494;23;20344;-90
2023/04/02 10:33:36;;;;;;;54.53;28.75;;;;;;;13.96;100.00;99999.69;6224268;23;20009;-89
2023/04/02 10:36:26;;;;;;;53.30;27.73;;;;;;;13.79;100.00;100006.34;6227241;23;20017;-88
2023/04/02 10:39:10;;;;;;;45.67;25.95;;;;;;;13.87;100.00;100013.38;6173315;23;20016;-85
2023/04/02 10:41:45;;;;;;;48.72;28.65;;;;;;;13.91;100.00;100002.16;6232774;23;20008;-89
2023/04/02 10:47:56;;;;;;;48.67;27.23;;;;;;;14.60;100.00;99996.72;6233492;23;20509;-81
2023/04/02 11:02:58;;;;;;;40.67;23.88;;;;;;;15.90;100.00;99973.78;6194204;23;20031;-91
2023/04/02 11:05:52;;;;;;;37.55;21.98;;;;;;;16.23;100.00;99973.69;6192889;23;20028;-90
2023/04/02 11:08:36;;;;;;;33.80;20.45;;;;;;;16.55;100.00;99982.59;6165274;23;20013;-87
2023/04/02 11:11:21;;;;;;;34.08;19.35;;;;;;;18.17;100.00;99977.13;6197670;23;20499;-90
2023/04/02 11:14:14;;;;;;;28.70;16.02;;;;;;;18.69;100.00;99986.41;6196171;23;20013;-88
2023/04/02 11:16:42;;;;;;;23.15;14.45;;;;;;;18.36;100.00;99984.13;6196888;23;20147;-86
2023/04/02 11:19:31;;;;;;;22.83;14.65;;;;;;;18.29;100.00;99980.72;6174092;23;20013;-87
2023/04/02 11:22:24;;;;;;;21.83;11.90;;;;;;;16.69;100.00;99975.31;6173762;23;20009;-89
2023/04/02 11:24:59;;;;;;;20.67;13.07;;;;;;;16.42;100.00;99977.28;6173230;23;20013;-90
2023/04/02 11:27:35;;;;;;;19.88;11.32;;;;;;;16.53;100.00;99976.63;6176700;23;20100;-89
2023/04/02 11:30:25;;;;;;;22.45;13.75;;;;;;;17.08;100.00;99982.28;6177214;23;20057;-89
2023/04/02 11:34:03;;;;;;;25.35;14.57;;;;;;;17.49;100.00;99980.72;6189992;23;20027;-90
2023/04/02 11:36:53;;;;;;;27.15;15.70;;;;;;;19.02;97.49;99981.38;6177672;23;20033;-89
2023/04/02 11:40:00;;;;;;;28.65;16.85;;;;;;;20.59;82.92;99983.06;6151984;23;20024;-91
2023/04/02 11:45:26;;;;;;;30.77;15.57;;;;;;;20.69;79.05;99988.63;6208987;23;20356;-88
2023/04/02 11:48:02;;;;;;;19.60;11.88;;;;;;;21.40;70.63;99989.91;6181105;23;20287;-87
2023/04/02 11:51:13;;;;;;;20.65;12.57;;;;;;;21.99;68.63;99973.00;6200617;23;20016;-88
2023/04/02 11:53:49;;;;;;;19.88;11.60;;;;;;;21.46;70.17;99984.34;6200942;23;19997;-91
2023/04/02 11:56:27;;;;;;;18.60;10.15;;;;;;;19.33;76.56;99974.88;6173789;23;20094;-90
2023/04/02 11:59:22;;;;;;;14.40;9.38;;;;;;;17.68;80.79;99968.19;6170688;23;20398;-88
2023/04/02 12:02:26;;;;;;;14.43;10.02;;;;;;;16.92;90.82;99962.22;6198263;23;20336;-88
2023/04/02 12:05:19;;;;;;;17.23;10.48;;;;;;;17.09;96.77;99965.19;6205075;23;20013;-91
2023/04/02 12:08:46;;;;;;;17.83;10.15;;;;;;;16.80;90.48;99953.25;6183893;23;20013;-89
2023/04/02 12:11:14;;;;;;;16.55;10.75;;;;;;;16.77;93.73;99959.03;6181901;23;20012;-90
2023/04/02 12:13:40;;;;;;;19.10;10.70;;;;;;;16.19;97.74;99952.91;6146014;23;20005;-85
2023/04/02 12:16:33;;;;;;;14.68;9.52;;;;;;;16.25;89.84;99949.38;6190435;23;20087;-88
2023/04/02 12:19:00;;;;;;;19.30;11.30;;;;;;;16.22;91.97;99947.97;6194300;23;20012;-86
2023/04/02 12:21:33;;;;;;;18.17;9.52;;;;;;;16.11;90.15;99947.81;6174387;23;20016;-87
2023/04/02 12:24:13;;;;;;;15.30;8.57;;;;;;;15.88;90.88;99949.09;6184547;23;20045;-92
2023/04/02 12:26:46;;;;;;;15.13;8.65;;;;;;;15.72;89.64;99949.56;6198752;23;20012;-91
2023/04/02 12:29:23;;;;;;;12.00;8.38;;;;;;;15.72;91.88;99946.91;6170733;23;20044;-89
2023/04/02 12:32:38;;;;;;;15.63;8.73;;;;;;;16.23;89.70;99941.59;6193381;23;20013;-87
2023/04/02 12:35:05;;;;;;;12.57;8.30;;;;;;;15.98;91.59;99937.97;6020491;23;20020;-88
2023/04/02 12:37:51;;;;;;;11.20;7.20;;;;;;;16.18;91.30;99940.56;5997940;23;20031;-88
2023/04/02 12:40:17;;;;;;;10.88;6.65;;;;;;;16.19;84.25;99942.22;6062397;23;20024;-88
2023/04/02 12:42:43;;;;;;;14.93;8.05;;;;;;;16.26;85.97;99949.19;6054297;23;20018;-89
2023/04/02 12:45:32;;;;;;;13.93;9.00;;;;;;;16.36;85.95;99954.06;6126905;23;20015;-89
2023/04/02 12:48:01;;;;;;;13.52;8.27;;;;;;;16.20;88.23;99957.25;6186626;23;20025;-87
2023/04/02 12:50:28;;;;;;;11.48;7.85;;;;;;;16.11;87.44;99955.84;6163544;23;20052;-87
2023/04/02 12:52:57;;;;;;;13.13;8.65;;;;;;;16.12;88.33;99957.47;6163506;23;20139;-87
2023/04/02 12:55:24;;;;;;;12.80;7.90;;;;;;;16.17;87.81;99957.66;6187680;23;20067;-84
2023/04/02 12:58:25;;;;;;;13.40;7.18;;;;;;;16.26;84.53;99961.72;6218513;23;20009;-89
2023/04/02 13:00:51;;;;;;;13.15;7.78;;;;;;;16.13;85.54;99967.13;6174608;23;20009;-86
2023/04/02 13:03:19;;;;;;;11.60;6.05;;;;;;;15.98;84.97;99976.22;6195806;23;20136;-89
2023/04/02 13:05:54;;;;;;;8.48;6.50;;;;;;;15.95;85.20;99960.59;6214462;23;20033;-90
2023/04/02 13:08:40;;;;;;;10.60;6.05;;;;;;;15.93;81.55;99965.34;6166312;23;20067;-87
2023/04/02 13:11:09;;;;;;;11.15;6.50;;;;;;;16.03;81.49;99963.06;6201607;23;20013;-85
2023/04/02 13:13:44;;;;;;;11.07;6.35;;;;;;;16.19;81.59;99969.78;6197175;23;20016;-88
2023/04/02 13:16:16;;;;;;;8.90;5.22;;;;;;;16.24;81.02;99963.81;6194961;23;20305;-87
2023/04/02 13:18:48;;;;;;;7.85;4.53;;;;;;;16.16;76.01;99966.72;6191283;23;20013;-89
2023/04/02 13:21:13;;;;;;;8.98;5.07;;;;;;;15.96;79.43;99967.59;6196915;23;20013;-87
2023/04/02 13:23:39;;;;;;;9.35;5.30;;;;;;;16.01;81.20;99964.28;6195274;23;20035;-85
2023/04/02 13:26:23;;;;;;;8.70;5.22;;;;;;;15.82;83.64;99975.84;6194113;23;20009;-84
2023/04/02 13:29:00;;;;;;;11.18;5.47;;;;;;;15.91;82.22;99980.75;6193525;23;20451;-90
2023/04/02 13:31:27;;;;;;;7.20;4.68;;;;;;;16.12;80.01;99971.66;6199259;23;20013;-90
2023/04/02 13:33:53;;;;;;;7.15;4.50;;;;;;;16.00;78.94;99978.69;6196578;23;20036;-91
2023/04/02 13:36:21;;;;;;;8.13;4.68;;;;;;;15.94;79.32;99975.00;6196117;23;20013;-86
2023/04/02 13:38:48;;;;;;;10.18;5.40;;;;;;;16.10;79.54;99988.94;6204042;23;20020;-83
2023/04/02 13:41:28;;;;;;;9.15;5.47;;;;;;;16.29;76.43;99982.69;6208646;23;19993;-87
2023/04/02 13:43:59;;;;;;;7.13;5.05;;;;;;;16.19;76.65;99985.00;6206844;23;20337;-87
2023/04/02 13:46:30;;;;;;;8.30;5.65;;;;;;;16.26;75.52;99983.13;6199536;23;20013;-90
2023/04/02 13:48:56;;;;;;;9.35;6.07;;;;;;;16.09;76.65;99979.28;6167694;23;20028;-86
2023/04/02 13:51:27;;;;;;;8.27;5.93;;;;;;;16.14;77.27;99990.97;6191360;23;20005;-85
2023/04/02 13:53:56;;;;;;;11.52;6.47;;;;;;;16.16;77.27;99982.75;6189371;23;20039;-87
2023/04/02 13:56:23;;;;;;;11.50;6.35;;;;;;;16.28;77.24;99979.19;6183500;23;20088;-88
2023/04/02 13:58:52;;;;;;;9.13;5.68;;;;;;;16.10;78.51;99980.91;6187454;23;20020;-86
2023/04/02 14:01:22;;;;;;;9.05;5.32;;;;;;;16.28;77.27;99987.22;6186124;23;20013;-86
2023/04/02 14:03:47;;;;;;;9.43;6.05;;;;;;;16.03;79.07;99973.75;6190419;23;20348;-85
2023/04/02 14:06:14;;;;;;;8.05;5.60;;;;;;;16.00;80.04;99984.03;6162197;23;20016;-87
2023/04/02 14:08:48;;;;;;;10.25;5.68;;;;;;;16.21;79.02;99974.91;6187745;23;20005;-85
2023/04/02 14:11:49;;;;;;;8.88;5.68;;;;;;;16.09;79.41;99976.59;6196075;23;20016;-87
2023/04/02 14:14:21;;;;;;;9.13;5.95;;;;;;;16.20;77.44;99976.78;6201610;23;20781;-89
2023/04/02 14:17:23;;;;;;;6.53;3.97;;;;;;;16.35;70.58;99987.19;6189526;23;20040;-87
2023/04/02 14:20:19;;;;;;;6.53;4.40;;;;;;;16.30;73.19;99979.00;6190021;23;20060;-84
2023/04/02 14:23:01;;;;;;;7.38;4.57;;;;;;;16.39;71.19;99975.03;6167415;23;20034;-85
2023/04/02 14:25:43;;;;;;;10.90;5.32;;;;;;;16.21;74.69;99978.41;6188679;23;20096;-88
2023/04/02 14:28:25;;;;;;;7.63;4.43;;;;;;;16.17;73.73;99979.06;6193258;23;20013;-86
2023/04/02 14:31:05;;;;;;;7.53;3.97;;;;;;;16.32;73.73;99971.56;6187935;23;20009;-86
2023/04/02 14:33:49;;;;;;;8.05;4.68;;;;;;;16.36;72.67;99978.97;6185769;23;20511;-84
2023/04/02 14:36:22;;;;;;;8.45;4.13;;;;;;;16.21;72.43;99974.91;6160999;23;20017;-85
2023/04/02 14:38:53;;;;;;;8.45;3.85;;;;;;;16.31;71.91;99969.91;6184541;23;20036;-85
2023/04/02 14:41:55;;;;;;;6.68;3.60;;;;;;;16.47;70.90;99969.47;6184807;23;20017;-84
2023/04/02 14:44:24;;;;;;;6.55;4.13;;;;;;;16.41;70.44;99959.59;6185022;23;20460;-84
2023/04/02 14:46:58;;;;;;;6.25;2.92;;;;;;;16.23;69.19;99960.31;6188621;23;20029;-88
2023/04/02 14:49:30;;;;;;;6.38;3.00;;;;;;;16.35;69.11;99960.44;6191303;23;20008;-89
2023/04/02 14:52:01;;;;;;;5.07;2.90;;;;;;;16.26;69.98;99956.38;6192482;23;20016;-88
2023/04/02 14:54:50;;;;;;;7.35;3.45;;;;;;;16.50;69.25;99955.66;6190920;23;20024;-87
2023/04/02 14:57:17;;;;;;;4.10;3.15;;;;;;;16.44;68.66;99943.94;6195108;23;20009;-90
2023/04/02 14:59:58;;;;;;;6.35;3.03;;;;;;;16.46;68.91;99941.06;6192408;23;20016;-87
2023/04/02 15:02:44;;;;;;;3.90;2.35;;;;;;;16.65;65.78;99934.78;6190486;23;20036;-87
2023/04/02 15:05:21;;;;;;;4.88;2.13;;;;;;;16.57;66.83;99921.69;6193392;23;20013;-89
2023/04/02 15:08:02;;;;;;;2.88;2.17;;;;;;;16.52;64.94;99926.81;6192708;23;20017;-89
2023/04/02 15:10:31;;;;;;;4.82;2.35;;;;;;;16.77;63.34;99922.34;6165190;23;20009;-86
2023/04/02 15:13:02;;;;;;;4.63;2.85;;;;;;;16.68;62.95;99912.97;6196299;23;20101;-89
2023/04/02 15:15:45;;;;;;;4.43;2.60;;;;;;;16.70;63.70;99915.44;6142547;23;20070;-86
2023/04/02 15:18:16;;;;;;;4.32;2.17;;;;;;;16.68;65.53;99912.97;6167387;23;20112;-89
2023/04/02 15:21:00;;;;;;;7.55;2.92;;;;;;;16.71;66.23;99917.06;6147657;23;20104;-87
2023/04/02 15:23:53;;;;;;;5.35;2.45;;;;;;;17.01;64.55;99913.53;6143342;23;20009;-86
2023/04/02 15:26:43;;;;;;;5.95;2.83;;;;;;;16.74;65.26;99925.47;6191628;23;20009;-88
2023/04/02 15:29:30;;;;;;;4.60;2.22;;;;;;;16.85;64.40;99922.09;6172092;23;20009;-86
2023/04/02 15:32:28;;;;;;;5.68;2.50;;;;;;;16.72;65.36;99924.88;6148687;23;20014;-89
2023/04/02 15:35:22;;;;;;;6.18;2.40;;;;;;;16.59;65.22;99935.66;6192732;23;20036;-87
2023/04/02 15:38:06;;;;;;;5.82;2.13;;;;;;;16.60;64.76;99941.84;6166597;23;20021;-91
2023/04/02 15:41:10;;;;;;;4.05;2.17;;;;;;;16.54;64.84;99948.81;6165494;23;20024;-88
2023/04/02 15:44:14;;;;;;;4.00;2.60;;;;;;;16.58;65.89;99946.56;6202527;23;20017;-88
2023/04/02 15:47:29;;;;;;;3.90;2.38;;;;;;;16.74;64.89;99944.19;6201349;23;20028;-84
2023/04/02 15:50:25;;;;;;;3.55;2.20;;;;;;;16.87;64.53;99951.34;6170273;23;20048;-88
2023/04/02 15:53:32;;;;;;;6.13;2.50;;;;;;;16.87;65.43;99943.31;6118704;23;20049;-86
2023/04/02 15:56:36;;;;;;;6.18;3.25;;;;;;;16.84;65.56;99949.91;6164936;23;20040;-84
2023/04/02 15:59:40;;;;;;;9.05;6.03;;;;;;;17.06;64.30;99958.41;6138730;23;20081;-85
2023/04/02 16:02:40;;;;;;;5.82;3.28;;;;;;;16.89;64.75;99963.47;6192792;23;20448;-86
2023/04/02 16:05:24;;;;;;;4.90;2.67;;;;;;;16.90;63.77;99954.38;6196711;23;20103;-86
2023/04/02 16:08:30;;;;;;;3.60;1.85;;;;;;;16.73;63.63;99971.19;6193798;23;20108;-85
2023/04/02 16:10:56;;;;;;;5.57;2.85;;;;;;;16.53;65.74;99972.09;6146082;23;20013;-85
2023/04/02 16:13:35;;;;;;;3.08;2.30;;;;;;;16.30;66.99;99957.59;6173410;23;20009;-87
2023/04/02 16:16:23;;;;;;;6.80;2.40;;;;;;;16.49;66.43;99970.88;6198579;23;20009;-87
2023/04/02 16:19:00;;;;;;;5.90;4.13;;;;;;;16.24;67.17;99969.94;6197954;23;20032;-86
2023/04/02 16:22:07;;;;;;;17.65;3.58;;;;;;;16.19;68.65;99964.44;6172194;23;20020;-87
2023/04/02 16:24:33;;;;;;;6.57;4.25;;;;;;;16.31;68.15;99973.41;6197496;23;20016;-88
2023/04/02 16:27:36;;;;;;;8.45;4.38;;;;;;;16.31;69.28;99978.78;6193221;23;20084;-87
2023/04/02 16:30:13;;;;;;;15.77;5.00;;;;;;;16.30;70.54;99979.00;6197094;23;20016;-86
2023/04/02 16:33:09;;;;;;;11.60;4.88;;;;;;;16.18;72.13;99981.50;6200270;23;20001;-86
2023/04/02 16:35:49;;;;;;;13.25;5.93;;;;;;;16.08;75.20;99981.13;6206583;23;20017;-88
2023/04/02 16:38:33;;;;;;;10.65;5.13;;;;;;;16.03;77.10;99979.09;6211901;23;20000;-88
2023/04/02 16:41:14;;;;;;;10.60;4.63;;;;;;;15.87;79.60;99976.88;6190283;23;20024;-86
2023/04/02 16:44:04;;;;;;;8.05;3.85;;;;;;;15.82;81.93;99976.69;6190165;23;20021;-87
2023/04/02 16:46:45;;;;;;;8.10;4.15;;;;;;;15.74;83.86;99984.91;6193111;23;20108;-86
2023/04/02 16:49:23;;;;;;;8.52;4.90;;;;;;;15.65;85.52;99980.81;6192022;23;20084;-88
2023/04/02 16:52:17;;;;;;;12.52;4.80;;;;;;;15.48;87.04;99984.94;6187715;23;20017;-88
2023/04/02 16:54:46;;;;;;;;;;;;;;;15.43;88.00;99987.38;6191242;23;20397;-89
2023/04/02 16:57:42;;;;;;;9.60;6.03;;;;;;;15.28;89.76;99989.47;6190261;23;19928;-89
2023/04/02 17:00:35;;;;;;;7.85;5.35;;;;;;;15.40;89.14;99993.97;6196605;23;20013;-88
2023/04/02 17:03:34;;;;;;;9.52;5.47;;;;;;;15.23;91.16;99991.91;6163196;23;20028;-89
2023/04/02 17:06:11;;;;;;;11.70;6.05;;;;;;;14.96;94.14;99994.56;6190313;23;20013;-88
2023/04/02 17:08:49;;;;;;;10.40;5.78;;;;;;;14.78;97.41;99988.16;6189929;23;20001;-86
2023/04/02 17:11:23;;;;;;;16.27;6.32;;;;;;;14.86;98.14;99990.63;6167500;23;20009;-86
2023/04/02 17:14:32;;;;;;;8.10;5.80;;;;;;;14.71;100.00;99990.00;6167852;23;20017;-86
2023/04/02 17:17:01;;;;;;;11.50;6.38;;;;;;;14.62;100.00;99993.84;6147515;23;20084;-87
2023/04/02 17:19:31;;;;;;;11.77;6.05;;;;;;;14.46;100.00;99995.03;6136726;23;20016;-86
2023/04/02 17:22:01;;;;;;;12.15;6.15;;;;;;;14.45;100.00;99993.38;6161678;23;20017;-84
2023/04/02 17:24:56;;;;;;;14.10;6.40;;;;;;;14.39;100.00;99994.19;6159739;23;20018;-85
2023/04/02 17:27:31;;;;;;;11.05;6.45;;;;;;;14.23;100.00;99992.66;6134999;23;20049;-87
2023/04/02 17:30:23;;;;;;;13.73;6.10;;;;;;;14.30;100.00;99990.03;6166139;23;19993;-86
2023/04/02 17:32:48;;;;;;;11.10;5.75;;;;;;;14.28;100.00;100002.75;6150804;23;20013;-85
2023/04/02 17:35:35;;;;;;;14.15;6.65;;;;;;;14.20;100.00;100003.72;6160173;23;20013;-87
2023/04/02 17:38:18;;;;;;;12.65;6.28;;;;;;;14.09;100.00;100000.78;6141163;23;20024;-88